createdAt,value
2019-04-20T00:01:40.867Z,82.30
2019-04-20T00:04:17.006Z,83.00
2019-04-20T00:06:46.716Z,83.00
2019-04-20T00:09:15.806Z,83.10
2019-04-20T00:11:53.491Z,83.80
2019-04-20T00:14:17.235Z,84.00
2019-04-20T00:16:44.087Z,84.40
2019-04-20T00:19:17.257Z,85.00
2019-04-20T00:21:52.695Z,85.50
2019-04-20T00:24:25.268Z,85.60
2019-04-20T00:27:22.387Z,85.80
2019-04-20T00:29:39.344Z,86.00
2019-04-20T00:32:05.402Z,86.50
2019-04-20T00:34:29.529Z,86.70
2019-04-20T00:36:54.019Z,86.80
2019-04-20T00:39:23.831Z,86.80
2019-04-20T00:41:58.743Z,86.70
2019-04-20T00:44:28.542Z,86.90
2019-04-20T00:47:04.894Z,87.10
2019-04-20T00:49:38.819Z,87.30
2019-04-20T00:52:23.711Z,87.40
2019-04-20T00:54:26.385Z,87.70
2019-04-20T00:57:07.852Z,87.70
2019-04-20T00:59:42.486Z,88.30
2019-04-20T01:02:12.621Z,88.50
2019-04-20T01:04:47.656Z,88.80
2019-04-20T01:07:15.462Z,88.70
2019-04-20T01:09:51.970Z,88.90
2019-04-20T01:12:26.291Z,89.50
2019-04-20T01:14:55.763Z,89.40
2019-04-20T01:17:22.206Z,89.60
2019-04-20T01:19:52.664Z,89.60
2019-04-20T01:22:24.071Z,89.30
2019-04-20T01:24:53.370Z,89.20
2019-04-20T01:27:35.018Z,89.50
2019-04-20T01:30:03.551Z,89.20
2019-04-20T01:32:32.249Z,89.10
2019-04-20T01:35:05.741Z,89.00
2019-04-20T01:37:36.325Z,89.50
2019-04-20T01:39:58.574Z,89.70
2019-04-20T01:42:25.568Z,89.80
2019-04-20T01:44:56.963Z,90.00
2019-04-20T01:47:33.382Z,90.00
2019-04-20T01:50:04.713Z,90.20
2019-04-20T01:52:34.920Z,90.30
2019-04-20T01:55:27.575Z,90.00
2019-04-20T01:58:01.413Z,90.30
2019-04-20T02:00:23.286Z,90.00
2019-04-20T02:02:57.047Z,90.10
2019-04-20T02:05:27.199Z,90.10
2019-04-20T02:07:54.178Z,90.40
2019-04-20T02:10:31.884Z,90.60
2019-04-20T02:12:57.693Z,90.80
2019-04-20T02:15:30.007Z,91.00
2019-04-20T02:18:07.497Z,91.20
2019-04-20T02:20:44.356Z,91.30
2019-04-20T02:23:09.633Z,91.40
2019-04-20T02:25:25.106Z,91.50
2019-04-20T02:28:07.602Z,91.50
2019-04-20T02:31:04.969Z,91.50
2019-04-20T02:36:13.882Z,91.30
2019-04-20T02:39:04.246Z,91.30
2019-04-20T02:41:09.799Z,91.20
2019-04-20T02:43:58.142Z,91.10
2019-04-20T02:46:08.589Z,90.70
2019-04-20T02:48:47.172Z,90.80
2019-04-20T02:51:12.970Z,90.30
2019-04-20T02:53:51.341Z,89.60
2019-04-20T02:56:23.242Z,89.80
2019-04-20T02:58:50.301Z,90.10
2019-04-20T03:01:23.608Z,90.70
2019-04-20T03:03:40.588Z,91.20
2019-04-20T03:06:17.174Z,91.40
2019-04-20T03:08:59.990Z,91.60
2019-04-20T03:11:29.389Z,91.70
2019-04-20T03:13:56.774Z,91.70
2019-04-20T03:16:24.242Z,91.80
2019-04-20T03:18:55.815Z,91.80
2019-04-20T03:21:34.580Z,91.60
2019-04-20T03:24:09.857Z,91.60
2019-04-20T03:26:34.018Z,91.50
2019-04-20T03:29:18.849Z,91.70
2019-04-20T03:37:13.178Z,92.40
2019-04-20T03:39:32.454Z,92.60
2019-04-20T03:41:51.502Z,93.20
2019-04-20T03:44:20.532Z,92.90
2019-04-20T03:46:57.240Z,92.80
2019-04-20T03:49:42.362Z,92.80
2019-04-20T03:52:27.485Z,93.00
2019-04-20T03:54:55.494Z,92.90
2019-04-20T03:58:02.830Z,92.90
2019-04-20T04:00:30.458Z,93.00
2019-04-20T04:03:12.650Z,93.20
2019-04-20T04:05:46.895Z,93.40
2019-04-20T04:08:18.633Z,92.90
2019-04-20T04:10:54.849Z,93.30
2019-04-20T04:13:18.780Z,93.40
2019-04-20T04:15:55.612Z,93.10
2019-04-20T04:18:27.994Z,93.00
2019-04-20T04:20:59.434Z,92.50
2019-04-20T04:23:40.996Z,91.70
2019-04-20T04:26:08.534Z,91.60
2019-04-20T04:28:41.205Z,91.30
2019-04-20T04:31:11.985Z,91.60
2019-04-20T04:36:10.073Z,92.60
2019-04-20T04:38:53.455Z,92.70
2019-04-20T04:43:44.132Z,92.70
2019-04-20T04:45:59.548Z,92.70
2019-04-20T04:48:35.019Z,92.90
2019-04-20T04:51:03.204Z,93.10
2019-04-20T04:53:41.753Z,93.20
2019-04-20T04:56:05.737Z,93.20
2019-04-20T04:58:32.279Z,93.20
2019-04-20T05:01:07.690Z,93.10
2019-04-20T05:03:54.146Z,92.90
2019-04-20T05:06:25.018Z,92.70
2019-04-20T05:08:43.079Z,92.60
2019-04-20T05:11:06.961Z,92.30
2019-04-20T05:13:45.037Z,92.10
2019-04-20T05:16:33.722Z,91.90
2019-04-20T05:19:11.539Z,91.80
2019-04-20T05:21:39.402Z,91.80
2019-04-20T05:24:08.538Z,91.80
2019-04-20T05:26:48.479Z,91.60
2019-04-20T05:29:03.459Z,91.40
2019-04-20T05:31:38.151Z,91.30
2019-04-20T05:36:49.928Z,91.00
2019-04-20T05:39:31.179Z,91.00
2019-04-20T05:41:45.476Z,90.40
2019-04-20T05:44:19.323Z,79.90
2019-04-20T05:46:59.105Z,66.70
2019-04-20T05:49:25.853Z,57.10
2019-04-20T05:51:57.730Z,50.80
2019-04-20T05:54:36.353Z,46.70
2019-04-20T05:57:07.831Z,42.70
2019-04-20T05:59:37.408Z,40.20
2019-04-20T06:05:08.438Z,37.60
2019-04-20T06:07:25.268Z,36.90
2019-04-20T06:09:59.444Z,35.70
2019-04-20T06:12:31.702Z,35.20
2019-04-20T06:15:01.443Z,34.70
2019-04-20T06:17:52.708Z,33.20
2019-04-20T06:20:28.334Z,30.20
2019-04-20T06:23:01.346Z,30.60
2019-04-20T06:27:58.102Z,32.40
2019-04-20T06:30:23.901Z,33.20
2019-04-20T06:33:52.175Z,30.50
2019-04-20T06:41:14.233Z,31.00
2019-04-20T06:43:42.233Z,31.00
2019-04-20T06:46:10.053Z,30.70
2019-04-20T06:48:51.990Z,30.60
2019-04-20T06:51:10.802Z,31.40
2019-04-20T06:53:47.581Z,31.80
2019-04-20T06:56:23.521Z,32.10
2019-04-20T06:58:53.798Z,31.70
2019-04-20T07:01:17.153Z,31.80
2019-04-20T07:04:04.070Z,34.00
2019-04-20T07:06:43.653Z,32.20
2019-04-20T07:09:00.377Z,33.20
2019-04-20T07:11:26.069Z,34.20
2019-04-20T07:13:44.441Z,32.60
2019-04-20T07:16:39.562Z,33.40
2019-04-20T07:19:19.008Z,32.90
2019-04-20T07:22:05.653Z,31.20
2019-04-20T07:24:38.455Z,31.60
2019-04-20T07:26:55.565Z,30.80
2019-04-20T07:29:33.299Z,30.10
2019-04-20T07:31:53.995Z,32.10
2019-04-20T07:34:26.155Z,32.50
2019-04-20T07:37:21.675Z,33.80
2019-04-20T07:39:32.860Z,34.30
2019-04-20T07:42:08.055Z,32.90
2019-04-20T07:44:41.379Z,31.00
2019-04-20T07:47:08.923Z,31.70
2019-04-20T07:49:29.020Z,33.20
2019-04-20T07:51:46.095Z,33.30
2019-04-20T07:54:38.609Z,34.60
2019-04-20T07:57:04.093Z,32.40
2019-04-20T07:59:24.355Z,35.90
2019-04-20T08:02:29.078Z,34.70
2019-04-20T08:05:06.057Z,35.40
2019-04-20T08:07:35.106Z,34.20
2019-04-20T08:09:59.883Z,34.40
2019-04-20T08:12:56.919Z,34.40
2019-04-20T08:15:35.128Z,35.20
2019-04-20T08:17:56.459Z,33.20
2019-04-20T08:20:21.984Z,33.90
2019-04-20T08:22:53.157Z,32.60
2019-04-20T08:25:16.710Z,32.40
2019-04-20T08:27:51.154Z,33.90
2019-04-20T08:30:44.060Z,33.20
2019-04-20T08:33:17.816Z,31.00
2019-04-20T08:35:56.579Z,30.80
2019-04-20T08:39:00.139Z,31.50
2019-04-20T08:40:50.311Z,29.90
2019-04-20T08:43:38.209Z,32.00
2019-04-20T08:45:50.972Z,31.60
2019-04-20T08:48:23.407Z,32.30
2019-04-20T08:50:51.733Z,33.50
2019-04-20T08:53:25.940Z,33.30
2019-04-20T08:55:51.795Z,32.30
2019-04-20T08:58:04.730Z,33.80
2019-04-20T09:00:39.599Z,32.70
2019-04-20T09:03:12.929Z,30.00
2019-04-20T09:05:45.844Z,32.40
2019-04-20T09:08:13.544Z,32.60
2019-04-20T09:10:54.087Z,31.70
2019-04-20T09:13:18.698Z,31.90
2019-04-20T09:15:38.443Z,33.20
2019-04-20T09:18:20.969Z,31.40
2019-04-20T09:20:47.532Z,28.60
2019-04-20T09:23:27.241Z,30.10
2019-04-20T09:26:04.753Z,28.70
2019-04-20T09:28:25.641Z,29.20
2019-04-20T09:31:01.774Z,28.90
2019-04-20T09:33:47.037Z,27.40
2019-04-20T09:36:18.493Z,28.00
2019-04-20T09:39:07.819Z,28.00
2019-04-20T09:41:47.078Z,28.20
2019-04-20T09:43:58.485Z,30.70
2019-04-20T09:46:32.850Z,29.50
2019-04-20T09:49:02.158Z,28.60
2019-04-20T09:51:46.232Z,27.70
2019-04-20T09:54:10.901Z,28.50
2019-04-20T09:56:49.669Z,27.60
2019-04-20T09:59:20.857Z,28.40
2019-04-20T10:01:38.105Z,28.90
2019-04-20T10:04:01.384Z,28.10
2019-04-20T10:06:35.577Z,27.60
2019-04-20T10:09:04.797Z,30.00
2019-04-20T10:11:31.939Z,27.90
2019-04-20T10:14:02.000Z,26.00
2019-04-20T10:16:31.472Z,27.30
2019-04-20T10:19:00.751Z,26.20
2019-04-20T10:21:29.886Z,25.90
2019-04-20T10:23:58.985Z,26.70
2019-04-20T10:26:30.288Z,26.40
2019-04-20T10:28:59.463Z,24.70
2019-04-20T10:31:35.758Z,26.30
2019-04-20T10:34:03.936Z,24.30
2019-04-20T10:36:41.750Z,25.40
2019-04-20T10:39:11.059Z,24.50
2019-04-20T10:41:52.611Z,26.20
2019-04-20T10:44:19.121Z,22.80
2019-04-20T10:46:47.542Z,24.10
2019-04-20T10:49:17.529Z,25.40
2019-04-20T10:51:47.563Z,25.70
2019-04-20T10:54:16.499Z,26.00
2019-04-20T10:56:45.734Z,25.10
2019-04-20T10:59:15.902Z,25.90
2019-04-20T11:01:45.686Z,24.80
2019-04-20T11:04:14.772Z,23.60
2019-04-20T11:06:44.724Z,25.70
2019-04-20T11:09:14.705Z,25.60
2019-04-20T11:11:44.128Z,25.40
2019-04-20T11:14:21.166Z,24.80
2019-04-20T11:16:44.505Z,24.00
2019-04-20T11:19:13.595Z,23.70
2019-04-20T11:21:42.323Z,23.80
2019-04-20T11:24:12.245Z,24.80
2019-04-20T11:26:42.307Z,24.10
2019-04-20T11:29:12.144Z,23.50
2019-04-20T11:31:46.475Z,24.30
2019-04-20T11:34:14.881Z,25.10
2019-04-20T11:36:43.351Z,23.70
2019-04-20T11:39:12.928Z,25.50
2019-04-20T11:41:41.696Z,25.30
2019-04-20T11:44:15.882Z,26.00
2019-04-20T11:46:44.950Z,24.10
2019-04-20T11:49:13.777Z,24.30
2019-04-20T11:51:45.573Z,24.50
2019-04-20T11:54:14.739Z,25.10
2019-04-20T11:56:45.808Z,23.90
2019-04-20T11:59:14.778Z,24.20
2019-04-20T12:01:51.965Z,23.00
2019-04-20T12:04:34.000Z,26.10
2019-04-20T12:06:59.063Z,25.60
2019-04-20T12:09:29.317Z,25.10
2019-04-20T12:12:09.288Z,23.20
2019-04-20T12:14:30.382Z,23.30
2019-04-20T12:16:59.685Z,22.40
2019-04-20T12:19:31.176Z,24.30
2019-04-20T12:24:58.160Z,25.70
2019-04-20T12:27:30.397Z,24.80
2019-04-20T12:29:59.572Z,24.30
2019-04-20T12:32:35.291Z,23.70
2019-04-20T12:35:00.243Z,21.70
2019-04-20T12:37:29.316Z,24.80
2019-04-20T12:39:58.084Z,24.30
2019-04-20T12:42:29.098Z,23.10
2019-04-20T12:44:57.779Z,24.80
2019-04-20T12:47:27.857Z,25.00
2019-04-20T12:49:56.829Z,24.90
2019-04-20T12:52:26.281Z,23.70
2019-04-20T12:54:56.560Z,23.40
2019-04-20T12:57:26.820Z,23.40
2019-04-20T12:59:57.189Z,24.70
2019-04-20T13:02:27.269Z,23.80
2019-04-20T13:04:57.487Z,22.10
2019-04-20T13:07:26.904Z,22.60
2019-04-20T13:09:56.900Z,23.20
2019-04-20T13:12:30.286Z,22.70
2019-04-20T13:15:16.105Z,22.50
2019-04-20T13:17:44.810Z,24.50
2019-04-20T13:20:14.179Z,23.70
2019-04-20T13:22:46.638Z,23.70
2019-04-20T13:25:16.912Z,24.50
2019-04-20T13:27:47.043Z,24.70
2019-04-20T13:30:16.563Z,24.30
2019-04-20T13:32:47.705Z,22.50
2019-04-20T13:35:18.244Z,24.10
2019-04-20T13:37:47.003Z,22.90
2019-04-20T13:40:17.658Z,22.80
2019-04-20T13:42:47.686Z,23.90
2019-04-20T13:45:17.061Z,25.10
2019-04-20T13:47:45.903Z,24.20
2019-04-20T13:50:17.893Z,24.10
2019-04-20T13:52:46.946Z,24.40
2019-04-20T13:55:16.910Z,24.10
2019-04-20T13:57:53.809Z,23.60
2019-04-20T14:00:54.070Z,23.40
2019-04-20T14:03:24.919Z,24.30
2019-04-20T14:05:53.612Z,23.50
2019-04-20T14:08:25.523Z,24.50
2019-04-20T14:10:55.554Z,25.20
2019-04-20T14:13:25.844Z,23.30
2019-04-20T14:15:55.442Z,23.70
2019-04-20T14:18:25.027Z,24.30
2019-04-20T14:20:54.085Z,25.30
2019-04-20T14:23:23.234Z,23.70
2019-04-20T14:25:52.025Z,24.80
2019-04-20T14:28:20.995Z,23.80
2019-04-20T14:30:49.991Z,24.00
2019-04-20T14:33:19.041Z,25.20
2019-04-20T14:35:48.384Z,26.10
2019-04-20T14:38:17.677Z,26.40
2019-04-20T14:40:46.452Z,24.30
2019-04-20T14:43:15.198Z,26.20
2019-04-20T14:45:45.013Z,24.80
2019-04-20T14:48:13.922Z,24.20
2019-04-20T14:50:43.495Z,24.70
2019-04-20T14:53:13.495Z,25.10
2019-04-20T14:55:43.685Z,23.10
2019-04-20T14:58:31.486Z,24.60
2019-04-20T15:01:04.976Z,24.50
2019-04-20T15:03:40.089Z,25.40
2019-04-20T15:06:09.687Z,24.60
2019-04-20T15:08:38.730Z,25.60
2019-04-20T15:11:07.604Z,24.70
2019-04-20T15:13:36.241Z,25.80
2019-04-20T15:16:06.559Z,26.00
2019-04-20T15:18:40.255Z,24.00
2019-04-20T15:21:13.482Z,24.00
2019-04-20T15:23:43.614Z,25.30
2019-04-20T15:26:12.852Z,26.60
2019-04-20T15:28:42.130Z,25.50
2019-04-20T15:31:12.171Z,27.20
2019-04-20T15:33:41.145Z,24.90
2019-04-20T15:36:10.528Z,24.60
2019-04-20T15:38:40.846Z,23.60
2019-04-20T15:41:11.990Z,26.40
2019-04-20T15:43:41.459Z,26.00
2019-04-20T15:46:10.421Z,24.30
2019-04-20T15:48:39.870Z,24.30
2019-04-20T15:51:09.934Z,25.60
2019-04-20T15:53:39.808Z,26.10
2019-04-20T15:56:11.604Z,25.80
2019-04-20T15:58:40.593Z,24.80
2019-04-20T16:01:10.363Z,27.00
2019-04-20T16:03:41.291Z,25.40
2019-04-20T16:06:11.561Z,26.10
2019-04-20T16:08:56.479Z,27.00
2019-04-20T16:11:15.303Z,26.60
2019-04-20T16:13:48.505Z,26.90
2019-04-20T16:16:16.048Z,28.40
2019-04-20T16:18:46.445Z,27.60
2019-04-20T16:21:20.909Z,27.40
2019-04-20T16:23:50.789Z,26.10
2019-04-20T16:26:26.563Z,26.10
2019-04-20T16:28:55.499Z,26.80
2019-04-20T16:31:24.515Z,26.10
2019-04-20T16:33:55.603Z,25.80
2019-04-20T16:36:23.970Z,26.50
2019-04-20T16:38:53.430Z,26.90
2019-04-20T16:41:22.414Z,27.00
2019-04-20T16:43:51.650Z,28.20
2019-04-20T16:46:23.841Z,27.00
2019-04-20T16:48:50.774Z,26.90
2019-04-20T16:51:20.753Z,28.30
2019-04-20T16:53:49.852Z,26.00
2019-04-20T16:56:21.036Z,26.30
2019-04-20T16:58:54.747Z,27.30
2019-04-20T17:01:21.349Z,28.10
2019-04-20T17:03:59.841Z,30.80
2019-04-20T17:06:22.270Z,28.10
2019-04-20T17:08:51.403Z,28.60
2019-04-20T17:11:19.931Z,28.00
2019-04-20T17:13:52.711Z,28.70
2019-04-20T17:16:19.698Z,26.70
2019-04-20T17:18:50.004Z,27.00
2019-04-20T17:21:23.531Z,28.60
2019-04-20T17:23:49.424Z,29.80
2019-04-20T17:26:29.537Z,28.50
2019-04-20T17:29:03.839Z,29.60
2019-04-20T17:31:37.778Z,28.50
2019-04-20T17:34:25.637Z,28.90
2019-04-20T17:36:40.091Z,27.70
2019-04-20T17:39:11.779Z,28.20
2019-04-20T17:41:55.787Z,29.10
2019-04-20T17:44:25.025Z,28.60
2019-04-20T17:46:55.766Z,30.30
2019-04-20T17:49:29.403Z,30.40
2019-04-20T17:52:12.339Z,31.40
2019-04-20T17:54:51.718Z,31.00
2019-04-20T17:57:17.234Z,32.90
2019-04-20T17:59:53.189Z,32.10
2019-04-20T18:02:48.677Z,32.00
2019-04-20T18:05:22.967Z,30.20
2019-04-20T18:07:44.858Z,31.20
2019-04-20T18:10:17.165Z,32.00
2019-04-20T18:12:37.458Z,31.60
2019-04-20T18:15:21.183Z,33.10
2019-04-20T18:18:09.363Z,33.00
2019-04-20T18:20:38.862Z,32.20
2019-04-20T18:23:08.599Z,35.30
2019-04-20T18:26:06.130Z,37.20
2019-04-20T18:28:20.882Z,41.10
2019-04-20T18:30:48.463Z,42.40
2019-04-20T18:33:13.698Z,43.50
2019-04-20T18:35:46.036Z,44.70
2019-04-20T18:38:15.237Z,45.50
2019-04-20T18:40:54.712Z,46.50
2019-04-20T18:43:18.697Z,47.00
2019-04-20T18:46:03.771Z,48.40
2019-04-20T18:48:40.469Z,48.40
2019-04-20T18:50:48.447Z,49.10
2019-04-20T18:53:23.828Z,49.60
2019-04-20T18:55:55.179Z,49.30
2019-04-20T18:58:17.783Z,49.10
2019-04-20T19:00:51.224Z,49.40
2019-04-20T19:03:27.039Z,49.00
2019-04-20T19:05:47.731Z,49.90
2019-04-20T19:08:18.014Z,50.80
2019-04-20T19:10:54.153Z,51.30
2019-04-20T19:13:26.777Z,51.40
2019-04-20T19:16:08.124Z,52.00
2019-04-20T19:18:49.429Z,52.50
2019-04-20T19:21:09.267Z,52.90
2019-04-20T19:23:47.662Z,53.50
2019-04-20T19:26:14.430Z,54.10
2019-04-20T19:28:45.248Z,54.20
2019-04-20T19:31:28.940Z,54.50
2019-04-20T19:34:01.824Z,55.30
2019-04-20T19:36:25.574Z,55.70
2019-04-20T19:39:01.749Z,55.20
2019-04-20T19:41:30.228Z,55.60
2019-04-20T19:44:02.508Z,55.30
2019-04-20T19:46:44.405Z,55.40
2019-04-20T19:48:56.035Z,56.00
2019-04-20T19:51:41.177Z,56.60
2019-04-20T19:54:13.142Z,56.90
2019-04-20T19:56:37.376Z,58.60
2019-04-20T19:59:09.008Z,58.30
2019-04-20T20:01:23.886Z,58.70
2019-04-20T20:03:56.581Z,58.50
2019-04-20T20:06:35.415Z,58.70
2019-04-20T20:09:00.347Z,58.00
2019-04-20T20:11:30.421Z,58.90
2019-04-20T20:13:58.466Z,57.70
2019-04-20T20:16:33.636Z,57.60
2019-04-20T20:19:06.092Z,58.40
2019-04-20T20:21:46.558Z,59.00
2019-04-20T20:23:57.663Z,59.10
2019-04-20T20:26:34.491Z,59.60
2019-04-20T20:29:10.973Z,60.30
2019-04-20T20:31:37.762Z,61.20
2019-04-20T20:34:12.166Z,61.90
2019-04-20T20:36:38.276Z,62.10
2019-04-20T20:39:11.037Z,63.70
2019-04-20T20:41:43.691Z,63.90
2019-04-20T20:44:08.084Z,63.50
2019-04-20T20:46:37.850Z,62.30
2019-04-20T20:49:18.363Z,62.60
2019-04-20T20:52:10.148Z,63.70
2019-04-20T20:54:09.888Z,63.80
2019-04-20T20:56:35.809Z,64.60
2019-04-20T20:59:11.218Z,63.10
2019-04-20T21:01:44.241Z,64.00
2019-04-20T21:04:04.942Z,64.10
2019-04-20T21:06:34.836Z,64.70
2019-04-20T21:09:08.145Z,65.10
2019-04-20T21:11:38.024Z,65.30
2019-04-20T21:14:07.158Z,66.50
2019-04-20T21:16:42.571Z,66.50
2019-04-20T21:19:21.135Z,67.00
2019-04-20T21:21:47.530Z,67.50
2019-04-20T21:24:14.542Z,67.30
2019-04-20T21:26:42.718Z,67.70
2019-04-20T21:29:10.182Z,68.50
2019-04-20T21:31:43.435Z,69.10
2019-04-20T21:34:16.191Z,69.60
2019-04-20T21:36:40.877Z,70.00
2019-04-20T21:39:21.939Z,70.10
2019-04-20T21:41:49.735Z,70.00
2019-04-20T21:44:17.678Z,70.50
2019-04-20T21:46:47.378Z,69.60
2019-04-20T21:49:26.289Z,70.00
2019-04-20T21:51:51.372Z,70.80
2019-04-20T21:54:13.922Z,70.70
2019-04-20T21:56:49.869Z,70.90
2019-04-20T21:59:22.678Z,69.30
2019-04-20T22:01:56.368Z,67.30
2019-04-20T22:04:14.579Z,70.00
2019-04-20T22:06:44.609Z,72.80
2019-04-20T22:09:14.808Z,75.00
2019-04-20T22:11:44.190Z,74.50
2019-04-20T22:14:18.881Z,74.60
2019-04-20T22:16:49.154Z,74.60
2019-04-20T22:19:29.893Z,74.90
2019-04-20T22:21:59.376Z,75.10
2019-04-20T22:24:33.051Z,75.60
2019-04-20T22:26:54.866Z,75.60
2019-04-20T22:29:18.278Z,75.20
2019-04-20T22:31:56.754Z,75.30
2019-04-20T22:34:21.289Z,74.70
2019-04-20T22:36:50.347Z,74.90
2019-04-20T22:39:31.203Z,75.10
2019-04-20T22:42:02.662Z,73.60
2019-04-20T22:44:27.074Z,74.00
2019-04-20T22:46:56.302Z,72.50
2019-04-20T22:49:43.037Z,72.30
2019-04-20T22:52:05.265Z,72.80
2019-04-20T22:54:39.770Z,73.10
2019-04-20T22:57:05.842Z,73.40
2019-04-20T22:59:39.826Z,73.20
2019-04-20T23:02:00.624Z,74.00
2019-04-20T23:04:28.749Z,74.00
2019-04-20T23:06:59.099Z,74.00
2019-04-20T23:09:28.855Z,73.80
2019-04-20T23:12:03.798Z,74.40
2019-04-20T23:14:28.764Z,74.60
2019-04-20T23:16:57.864Z,75.60
2019-04-20T23:19:35.653Z,76.40
2019-04-20T23:22:02.307Z,76.10
2019-04-20T23:24:29.160Z,76.30
2019-04-20T23:26:59.486Z,74.40
2019-04-20T23:29:32.665Z,75.00
2019-04-20T23:32:04.184Z,74.00
2019-04-20T23:34:32.429Z,73.60
2019-04-20T23:37:00.938Z,73.60
2019-04-20T23:39:35.478Z,73.60
2019-04-20T23:42:06.670Z,73.60
2019-04-20T23:44:33.645Z,73.10
2019-04-20T23:47:08.591Z,72.80
2019-04-20T23:49:54.259Z,72.60
2019-04-20T23:52:33.780Z,71.00
2019-04-20T23:54:37.576Z,72.00
2019-04-20T23:57:08.119Z,71.50
2019-04-20T23:59:41.119Z,72.00
